createdAt,value
2023-03-10T00:00:31.719Z,7.61
2023-03-10T00:05:33.773Z,7.61
2023-03-10T00:10:35.713Z,7.63
2023-03-10T00:15:37.707Z,7.63
2023-03-10T00:20:39.567Z,7.64
2023-03-10T00:25:41.413Z,7.65
2023-03-10T00:30:43.424Z,7.63
2023-03-10T00:35:45.413Z,7.65
2023-03-10T00:40:47.682Z,7.68
2023-03-10T00:45:49.608Z,7.69
2023-03-10T00:50:51.574Z,7.67
2023-03-10T00:56:08.187Z,7.71
2023-03-10T01:01:16.595Z,7.79
2023-03-10T01:06:19.529Z,7.85
2023-03-10T01:11:25.145Z,7.90
2023-03-10T01:16:27.492Z,7.95
2023-03-10T01:21:33.446Z,7.98
2023-03-10T01:26:35.686Z,8.01
2023-03-10T01:31:38.016Z,8.01
2023-03-10T01:36:42.124Z,8.01
2023-03-10T01:41:44.028Z,8.03
2023-03-10T01:46:47.646Z,8.00
2023-03-10T01:52:18.347Z,8.00
2023-03-10T01:57:27.129Z,7.97
2023-03-10T02:02:33.757Z,7.98
2023-03-10T02:07:38.894Z,8.02
2023-03-10T02:12:43.822Z,8.05
2023-03-10T02:17:48.047Z,8.11
2023-03-10T02:22:50.894Z,8.17
2023-03-10T02:27:52.933Z,8.23
2023-03-10T02:33:01.651Z,8.30
2023-03-10T02:38:04.636Z,8.37
2023-03-10T02:43:18.440Z,8.41
2023-03-10T02:48:31.756Z,8.39
2023-03-10T02:53:34.482Z,8.39
2023-03-10T02:58:37.074Z,8.36
2023-03-10T03:03:43.110Z,8.30
2023-03-10T03:08:46.601Z,8.28
2023-03-10T03:13:51.637Z,8.26
2023-03-10T03:18:53.858Z,8.26
2023-03-10T03:23:58.737Z,8.28
2023-03-10T03:29:00.904Z,8.29
2023-03-10T03:34:07.080Z,8.31
2023-03-10T03:39:09.438Z,8.35
2023-03-10T03:44:14.128Z,8.34
2023-03-10T03:49:16.133Z,8.35
2023-03-10T03:54:19.127Z,8.35
2023-03-10T03:59:21.978Z,8.35
2023-03-10T04:04:24.024Z,8.35
2023-03-10T04:09:26.506Z,8.35
2023-03-10T04:14:28.595Z,8.36
2023-03-10T04:19:34.650Z,8.37
2023-03-10T04:24:41.693Z,8.40
2023-03-10T04:29:43.727Z,8.45
2023-03-10T04:34:45.784Z,8.50
2023-03-10T04:39:47.912Z,8.54
2023-03-10T04:44:52.180Z,8.58
2023-03-10T04:49:54.937Z,8.61
2023-03-10T04:54:57.272Z,8.60
2023-03-10T05:00:02.633Z,8.59
2023-03-10T05:05:06.134Z,8.57
2023-03-10T05:10:11.568Z,8.57
2023-03-10T05:15:13.826Z,8.56
2023-03-10T05:20:17.877Z,8.56
2023-03-10T05:25:20.061Z,8.56
2023-03-10T05:30:22.477Z,8.57
2023-03-10T05:35:26.339Z,8.61
2023-03-10T05:40:28.318Z,8.63
2023-03-10T05:45:30.484Z,8.63
2023-03-10T05:50:33.078Z,8.63
2023-03-10T05:55:35.145Z,8.64
2023-03-10T06:00:37.110Z,8.65
2023-03-10T06:05:38.902Z,8.68
2023-03-10T06:10:41.206Z,8.70
2023-03-10T06:15:43.095Z,8.72
2023-03-10T06:20:45.041Z,8.75
2023-03-10T06:25:58.775Z,8.82
2023-03-10T06:31:02.530Z,8.84
2023-03-10T06:36:05.768Z,8.88
2023-03-10T06:41:08.315Z,8.90
2023-03-10T06:46:12.073Z,8.93
2023-03-10T06:51:19.378Z,8.94
2023-03-10T06:56:22.604Z,8.95
2023-03-10T07:01:37.001Z,8.96
2023-03-10T07:06:39.563Z,8.93
2023-03-10T07:11:41.647Z,8.92
2023-03-10T07:16:43.683Z,8.91
2023-03-10T07:21:46.826Z,8.91
2023-03-10T07:26:48.613Z,8.93
2023-03-10T07:31:50.455Z,9.01
2023-03-10T07:36:52.336Z,9.13
2023-03-10T07:41:54.254Z,9.24
2023-03-10T07:46:56.148Z,9.33
2023-03-10T07:52:01.083Z,9.44
2023-03-10T07:57:03.179Z,9.56
2023-03-10T08:02:05.466Z,9.66
2023-03-10T08:07:08.238Z,9.70
2023-03-10T08:12:10.350Z,9.73
2023-03-10T08:17:12.358Z,9.76
2023-03-10T08:22:14.298Z,9.85
2023-03-10T08:27:18.638Z,9.95
2023-03-10T08:32:20.819Z,10.03
2023-03-10T08:37:22.940Z,10.20
2023-03-10T08:42:24.954Z,10.42
2023-03-10T08:47:29.859Z,10.57
2023-03-10T08:52:33.442Z,10.62
2023-03-10T08:57:35.437Z,10.64
2023-03-10T09:02:37.308Z,10.68
2023-03-10T09:07:40.215Z,10.80
2023-03-10T09:12:43.319Z,10.92
2023-03-10T09:17:45.207Z,10.95
2023-03-10T09:22:47.174Z,10.96
2023-03-10T09:27:49.252Z,10.96
2023-03-10T09:32:51.403Z,10.91
2023-03-10T09:37:53.372Z,10.83
2023-03-10T09:43:03.910Z,10.99
2023-03-10T09:48:29.103Z,11.18
2023-03-10T09:53:49.913Z,11.34
2023-03-10T09:59:02.757Z,11.47
2023-03-10T10:04:21.535Z,11.60
2023-03-10T10:09:43.762Z,11.68
2023-03-10T10:14:56.797Z,11.77
2023-03-10T10:19:59.456Z,11.88
2023-03-10T10:25:16.822Z,12.02
2023-03-10T10:30:34.123Z,12.07
2023-03-10T10:35:41.573Z,11.95
2023-03-10T10:41:01.920Z,11.93
2023-03-10T10:46:07.067Z,11.89
2023-03-10T10:51:30.505Z,11.98
2023-03-10T10:56:32.644Z,12.02
2023-03-10T11:01:50.801Z,11.97
2023-03-10T11:06:53.132Z,11.95
2023-03-10T11:12:22.108Z,11.92
2023-03-10T11:17:43.283Z,11.85
2023-03-10T11:22:49.644Z,11.95
2023-03-10T11:27:56.322Z,12.07
2023-03-10T11:33:17.086Z,12.17
2023-03-10T11:38:38.023Z,12.17
2023-03-10T11:44:14.510Z,12.25
2023-03-10T11:49:19.811Z,12.30
2023-03-10T11:54:21.590Z,12.37
2023-03-10T11:59:26.925Z,12.43
2023-03-10T12:04:46.620Z,12.51
2023-03-10T12:09:58.266Z,12.65
2023-03-10T12:15:02.492Z,12.74
2023-03-10T12:20:15.462Z,12.73
2023-03-10T12:25:33.419Z,12.64
2023-03-10T12:30:49.217Z,12.54
2023-03-10T12:35:55.407Z,12.50
2023-03-10T12:40:59.252Z,12.53
2023-03-10T12:46:03.431Z,12.61
2023-03-10T12:51:13.950Z,12.64
2023-03-10T12:56:15.784Z,12.63
2023-03-10T13:01:23.066Z,12.56
2023-03-10T13:06:33.940Z,12.59
2023-03-10T13:11:36.133Z,12.69
2023-03-10T13:16:38.283Z,12.72
2023-03-10T13:21:42.288Z,12.83
2023-03-10T13:26:44.210Z,12.96
2023-03-10T13:31:54.132Z,12.95
2023-03-10T13:37:10.426Z,12.89
2023-03-10T13:42:42.758Z,12.84
2023-03-10T13:47:47.837Z,12.79
2023-03-10T13:52:59.756Z,12.76
2023-03-10T13:58:03.754Z,12.72
2023-03-10T14:03:08.458Z,12.71
2023-03-10T14:08:25.563Z,12.68
2023-03-10T14:13:45.225Z,12.59
2023-03-10T14:18:47.252Z,12.37
2023-03-10T14:23:49.396Z,11.73
2023-03-10T14:28:51.285Z,10.89
2023-03-10T14:33:53.338Z,10.37
2023-03-10T14:38:55.351Z,10.09
2023-03-10T14:43:59.914Z,9.92
2023-03-10T14:49:02.473Z,9.83
2023-03-10T14:54:04.579Z,9.77
2023-03-10T14:59:06.919Z,9.74
2023-03-10T15:04:15.925Z,9.85
2023-03-10T15:09:19.874Z,10.02
2023-03-10T15:14:21.748Z,10.16
2023-03-10T15:19:26.440Z,10.27
2023-03-10T15:24:28.552Z,10.35
2023-03-10T15:29:30.966Z,10.37
2023-03-10T15:34:32.903Z,10.41
2023-03-10T15:39:37.095Z,10.41
2023-03-10T15:44:40.263Z,10.42
2023-03-10T15:49:42.235Z,10.43
2023-03-10T15:54:44.295Z,10.37
2023-03-10T15:59:46.361Z,10.30
2023-03-10T16:04:49.423Z,10.22
2023-03-10T16:10:00.595Z,10.15
2023-03-10T16:15:02.606Z,10.10
2023-03-10T16:20:10.735Z,10.05
2023-03-10T16:25:15.859Z,10.03
2023-03-10T16:30:19.197Z,10.03
2023-03-10T16:35:21.196Z,10.04
2023-03-10T16:40:23.126Z,10.05
2023-03-10T16:45:26.433Z,10.05
2023-03-10T16:50:35.671Z,10.03
2023-03-10T16:55:38.648Z,9.99
2023-03-10T17:00:41.015Z,9.95
2023-03-10T17:05:42.913Z,9.91
2023-03-10T17:10:44.830Z,9.85
2023-03-10T17:15:46.786Z,9.78
2023-03-10T17:20:48.766Z,9.70
2023-03-10T17:25:52.107Z,9.65
2023-03-10T17:30:53.947Z,9.60
2023-03-10T17:35:55.752Z,9.55
2023-03-10T17:40:57.930Z,9.48
2023-03-10T17:46:04.854Z,9.46
2023-03-10T17:51:07.335Z,9.41
2023-03-10T17:56:09.851Z,9.37
2023-03-10T18:01:21.179Z,9.35
2023-03-10T18:06:26.227Z,9.29
2023-03-10T18:11:28.835Z,9.25
2023-03-10T18:16:33.516Z,9.22
2023-03-10T18:21:35.387Z,9.17
2023-03-10T18:26:38.261Z,9.15
2023-03-10T18:31:40.226Z,9.15
2023-03-10T18:36:43.146Z,9.15
2023-03-10T18:41:45.060Z,9.12
2023-03-10T18:46:46.982Z,9.11
2023-03-10T18:51:48.840Z,9.11
2023-03-10T18:56:50.609Z,9.11
2023-03-10T19:01:52.757Z,9.11
2023-03-10T19:06:55.727Z,9.12
2023-03-10T19:11:57.607Z,9.12
2023-03-10T19:16:59.548Z,9.13
2023-03-10T19:22:01.641Z,9.13
2023-03-10T19:27:04.290Z,9.15
2023-03-10T19:32:07.879Z,9.16
2023-03-10T19:37:09.726Z,9.12
2023-03-10T19:42:11.661Z,9.10
2023-03-10T19:47:18.538Z,9.08
2023-03-10T19:52:20.436Z,9.05
2023-03-10T19:57:23.296Z,9.03
2023-03-10T20:02:26.062Z,9.00
2023-03-10T20:07:27.862Z,8.96
2023-03-10T20:12:29.871Z,8.95
2023-03-10T20:17:31.911Z,8.95
2023-03-10T20:22:33.834Z,8.92
2023-03-10T20:27:36.366Z,8.88
2023-03-10T20:32:38.453Z,8.85
2023-03-10T20:37:42.038Z,8.79
2023-03-10T20:42:44.001Z,8.69
2023-03-10T20:47:47.911Z,8.56
2023-03-10T20:52:50.646Z,8.48
2023-03-10T20:57:54.676Z,8.44
2023-03-10T21:02:57.770Z,8.40
2023-03-10T21:07:59.779Z,8.36
2023-03-10T21:13:01.610Z,8.26
2023-03-10T21:18:08.322Z,8.18
2023-03-10T21:23:10.266Z,8.09
2023-03-10T21:28:12.193Z,8.00
2023-03-10T21:33:15.079Z,7.93
2023-03-10T21:38:16.996Z,7.90
2023-03-10T21:43:19.852Z,7.87
2023-03-10T21:48:21.754Z,7.85
2023-03-10T21:53:26.830Z,7.81
2023-03-10T21:58:29.040Z,7.73
2023-03-10T22:03:31.402Z,7.66
2023-03-10T22:08:34.871Z,7.61
2023-03-10T22:13:41.025Z,7.56
2023-03-10T22:18:43.794Z,7.53
2023-03-10T22:23:46.278Z,7.49
2023-03-10T22:28:48.249Z,7.47
2023-03-10T22:33:50.357Z,7.38
2023-03-10T22:38:52.247Z,7.36
2023-03-10T22:43:56.668Z,7.34
2023-03-10T22:48:59.212Z,7.30
2023-03-10T22:54:04.370Z,7.24
2023-03-10T22:59:06.507Z,7.13
2023-03-10T23:04:08.496Z,7.08
2023-03-10T23:09:10.865Z,7.06
2023-03-10T23:14:14.194Z,6.99
2023-03-10T23:19:16.168Z,6.96
2023-03-10T23:24:18.174Z,6.93
2023-03-10T23:29:20.068Z,6.90
2023-03-10T23:34:21.909Z,6.83
2023-03-10T23:39:24.057Z,6.65
2023-03-10T23:44:25.857Z,6.48
2023-03-10T23:49:27.948Z,6.04
2023-03-10T23:54:30.501Z,5.59
2023-03-10T23:59:32.377Z,5.22
